sensor_id;sensor_type;location;lat;lon;timestamp;P1;durP1;ratioP1;P2;durP2;ratioP2
25153;SDS011;47555;51.038;6.280;2024-03-23T00:54:38;9.00;;;3.08;;
25153;SDS011;47555;51.038;6.280;2024-03-23T00:57:04;7.57;;;3.80;;
25153;SDS011;47555;51.038;6.280;2024-03-23T00:59:30;10.65;;;3.70;;
25153;SDS011;47555;51.038;6.280;2024-03-23T01:01:56;7.65;;;2.90;;
25153;SDS011;47555;51.038;6.280;2024-03-23T01:04:22;8.50;;;3.08;;
25153;SDS011;47555;51.038;6.280;2024-03-23T01:06:48;8.65;;;3.35;;
25153;SDS011;47555;51.038;6.280;2024-03-23T01:09:14;6.45;;;2.72;;
25153;SDS011;47555;51.038;6.280;2024-03-23T01:11:40;5.57;;;2.83;;
25153;SDS011;47555;51.038;6.280;2024-03-23T01:14:06;8.27;;;2.90;;
25153;SDS011;47555;51.038;6.280;2024-03-23T01:16:32;7.00;;;2.58;;
25153;SDS011;47555;51.038;6.280;2024-03-23T01:18:58;5.85;;;2.40;;
25153;SDS011;47555;51.038;6.280;2024-03-23T01:21:25;6.32;;;2.85;;
25153;SDS011;47555;51.038;6.280;2024-03-23T01:23:50;11.25;;;3.50;;
25153;SDS011;47555;51.038;6.280;2024-03-23T01:26:16;5.70;;;2.80;;
25153;SDS011;47555;51.038;6.280;2024-03-23T01:28:42;6.63;;;2.45;;
25153;SDS011;47555;51.038;6.280;2024-03-23T01:31:08;7.68;;;2.28;;
25153;SDS011;47555;51.038;6.280;2024-03-23T01:33:35;7.00;;;2.25;;
25153;SDS011;47555;51.038;6.280;2024-03-23T01:36:01;6.88;;;2.10;;
25153;SDS011;47555;51.038;6.280;2024-03-23T01:38:26;6.38;;;1.70;;
25153;SDS011;47555;51.038;6.280;2024-03-23T01:40:56;4.85;;;2.10;;
25153;SDS011;47555;51.038;6.280;2024-03-23T01:43:22;5.80;;;2.42;;
25153;SDS011;47555;51.038;6.280;2024-03-23T01:45:48;4.72;;;2.30;;
25153;SDS011;47555;51.038;6.280;2024-03-23T01:48:14;5.70;;;2.10;;
25153;SDS011;47555;51.038;6.280;2024-03-23T01:50:40;6.75;;;2.20;;
25153;SDS011;47555;51.038;6.280;2024-03-23T01:53:06;5.43;;;2.08;;
25153;SDS011;47555;51.038;6.280;2024-03-23T01:55:32;5.35;;;2.08;;
25153;SDS011;47555;51.038;6.280;2024-03-23T01:57:59;3.97;;;1.95;;
25153;SDS011;47555;51.038;6.280;2024-03-23T02:00:25;6.72;;;2.35;;
25153;SDS011;47555;51.038;6.280;2024-03-23T02:02:53;6.53;;;1.90;;
25153;SDS011;47555;51.038;6.280;2024-03-23T02:05:21;5.05;;;1.90;;
25153;SDS011;47555;51.038;6.280;2024-03-23T02:07:48;5.30;;;3.08;;
25153;SDS011;47555;51.038;6.280;2024-03-23T02:10:14;4.55;;;1.90;;
25153;SDS011;47555;51.038;6.280;2024-03-23T02:12:40;4.30;;;1.60;;
25153;SDS011;47555;51.038;6.280;2024-03-23T02:15:06;5.93;;;1.80;;
25153;SDS011;47555;51.038;6.280;2024-03-23T02:17:33;5.15;;;1.63;;
25153;SDS011;47555;51.038;6.280;2024-03-23T02:20:00;3.45;;;1.70;;
25153;SDS011;47555;51.038;6.280;2024-03-23T02:22:35;5.78;;;2.10;;
25153;SDS011;47555;51.038;6.280;2024-03-23T02:25:02;6.03;;;2.35;;
25153;SDS011;47555;51.038;6.280;2024-03-23T02:27:28;4.18;;;1.90;;
25153;SDS011;47555;51.038;6.280;2024-03-23T02:29:56;4.15;;;1.90;;
25153;SDS011;47555;51.038;6.280;2024-03-23T02:32:22;5.05;;;1.63;;
25153;SDS011;47555;51.038;6.280;2024-03-23T02:34:48;4.90;;;2.30;;
25153;SDS011;47555;51.038;6.280;2024-03-23T02:37:14;6.25;;;2.47;;
25153;SDS011;47555;51.038;6.280;2024-03-23T02:39:40;5.60;;;2.50;;
25153;SDS011;47555;51.038;6.280;2024-03-23T02:42:06;6.47;;;2.10;;
25153;SDS011;47555;51.038;6.280;2024-03-23T02:44:32;7.45;;;2.60;;
25153;SDS011;47555;51.038;6.280;2024-03-23T02:46:58;5.45;;;2.70;;
25153;SDS011;47555;51.038;6.280;2024-03-23T02:49:25;7.03;;;2.25;;
25153;SDS011;47555;51.038;6.280;2024-03-23T02:51:51;8.23;;;2.80;;
25153;SDS011;47555;51.038;6.280;2024-03-23T02:54:17;6.60;;;2.88;;
25153;SDS011;47555;51.038;6.280;2024-03-23T02:56:43;6.15;;;2.50;;
25153;SDS011;47555;51.038;6.280;2024-03-23T02:59:09;9.13;;;3.03;;
25153;SDS011;47555;51.038;6.280;2024-03-23T03:01:35;6.40;;;2.35;;
25153;SDS011;47555;51.038;6.280;2024-03-23T03:04:01;3.38;;;1.95;;
25153;SDS011;47555;51.038;6.280;2024-03-23T03:06:30;5.45;;;2.33;;
25153;SDS011;47555;51.038;6.280;2024-03-23T03:08:56;5.10;;;2.55;;
25153;SDS011;47555;51.038;6.280;2024-03-23T03:11:22;9.82;;;2.50;;
25153;SDS011;47555;51.038;6.280;2024-03-23T03:13:48;8.73;;;2.42;;
25153;SDS011;47555;51.038;6.280;2024-03-23T03:16:14;3.58;;;2.65;;
25153;SDS011;47555;51.038;6.280;2024-03-23T03:18:40;9.07;;;2.70;;
25153;SDS011;47555;51.038;6.280;2024-03-23T03:21:06;5.05;;;2.25;;
25153;SDS011;47555;51.038;6.280;2024-03-23T03:23:36;5.38;;;2.08;;
25153;SDS011;47555;51.038;6.280;2024-03-23T03:26:02;6.22;;;2.15;;
25153;SDS011;47555;51.038;6.280;2024-03-23T03:28:28;8.82;;;2.75;;
25153;SDS011;47555;51.038;6.280;2024-03-23T03:30:56;7.40;;;3.03;;
25153;SDS011;47555;51.038;6.280;2024-03-23T03:33:23;9.02;;;3.45;;
25153;SDS011;47555;51.038;6.280;2024-03-23T03:35:49;7.40;;;3.08;;
25153;SDS011;47555;51.038;6.280;2024-03-23T03:38:16;9.20;;;3.30;;
25153;SDS011;47555;51.038;6.280;2024-03-23T03:40:42;7.30;;;2.90;;
25153;SDS011;47555;51.038;6.280;2024-03-23T03:43:08;6.50;;;2.88;;
25153;SDS011;47555;51.038;6.280;2024-03-23T03:45:34;7.78;;;2.70;;
25153;SDS011;47555;51.038;6.280;2024-03-23T03:48:00;6.60;;;2.67;;
25153;SDS011;47555;51.038;6.280;2024-03-23T03:50:26;5.97;;;2.70;;
25153;SDS011;47555;51.038;6.280;2024-03-23T03:52:52;4.57;;;2.40;;
25153;SDS011;47555;51.038;6.280;2024-03-23T03:55:18;7.80;;;2.67;;
25153;SDS011;47555;51.038;6.280;2024-03-23T03:57:47;9.57;;;2.72;;
25153;SDS011;47555;51.038;6.280;2024-03-23T04:00:13;9.48;;;2.65;;
25153;SDS011;47555;51.038;6.280;2024-03-23T04:02:39;10.95;;;3.47;;
25153;SDS011;47555;51.038;6.280;2024-03-23T04:05:06;5.68;;;2.88;;
25153;SDS011;47555;51.038;6.280;2024-03-23T04:07:33;7.65;;;2.60;;
25153;SDS011;47555;51.038;6.280;2024-03-23T04:09:59;9.13;;;2.85;;
25153;SDS011;47555;51.038;6.280;2024-03-23T04:12:25;10.80;;;2.83;;
25153;SDS011;47555;51.038;6.280;2024-03-23T04:14:51;10.05;;;2.65;;
25153;SDS011;47555;51.038;6.280;2024-03-23T04:17:17;7.10;;;2.22;;
25153;SDS011;47555;51.038;6.280;2024-03-23T04:19:44;11.60;;;3.08;;
25153;SDS011;47555;51.038;6.280;2024-03-23T04:22:10;7.85;;;2.78;;
25153;SDS011;47555;51.038;6.280;2024-03-23T04:24:36;5.70;;;2.72;;
25153;SDS011;47555;51.038;6.280;2024-03-23T04:27:02;12.57;;;2.83;;
25153;SDS011;47555;51.038;6.280;2024-03-23T04:29:28;6.20;;;2.50;;
25153;SDS011;47555;51.038;6.280;2024-03-23T04:31:54;6.25;;;2.55;;
25153;SDS011;47555;51.038;6.280;2024-03-23T04:34:20;8.75;;;2.92;;
25153;SDS011;47555;51.038;6.280;2024-03-23T04:36:47;6.78;;;3.22;;
25153;SDS011;47555;51.038;6.280;2024-03-23T04:39:13;8.40;;;2.58;;
25153;SDS011;47555;51.038;6.280;2024-03-23T04:41:39;10.68;;;3.08;;
25153;SDS011;47555;51.038;6.280;2024-03-23T04:44:05;11.00;;;2.95;;
25153;SDS011;47555;51.038;6.280;2024-03-23T04:46:31;9.55;;;3.03;;
25153;SDS011;47555;51.038;6.280;2024-03-23T04:48:57;6.88;;;2.88;;
25153;SDS011;47555;51.038;6.280;2024-03-23T04:51:23;9.85;;;3.17;;
25153;SDS011;47555;51.038;6.280;2024-03-23T04:53:49;10.90;;;2.60;;
25153;SDS011;47555;51.038;6.280;2024-03-23T04:56:16;7.07;;;2.60;;
25153;SDS011;47555;51.038;6.280;2024-03-23T04:58:42;8.02;;;3.20;;
25153;SDS011;47555;51.038;6.280;2024-03-23T05:01:08;11.82;;;3.38;;
25153;SDS011;47555;51.038;6.280;2024-03-23T05:03:34;12.65;;;3.42;;
25153;SDS011;47555;51.038;6.280;2024-03-23T05:06:00;12.68;;;3.70;;
25153;SDS011;47555;51.038;6.280;2024-03-23T05:08:26;8.45;;;3.58;;
25153;SDS011;47555;51.038;6.280;2024-03-23T05:10:52;10.75;;;3.40;;
25153;SDS011;47555;51.038;6.280;2024-03-23T05:13:18;9.07;;;4.25;;
25153;SDS011;47555;51.038;6.280;2024-03-23T05:15:44;5.80;;;2.92;;
25153;SDS011;47555;51.038;6.280;2024-03-23T05:18:10;10.55;;;3.17;;
25153;SDS011;47555;51.038;6.280;2024-03-23T05:20:36;12.77;;;3.15;;
25153;SDS011;47555;51.038;6.280;2024-03-23T05:23:03;12.60;;;3.58;;
25153;SDS011;47555;51.038;6.280;2024-03-23T05:25:29;9.65;;;2.75;;
25153;SDS011;47555;51.038;6.280;2024-03-23T05:27:55;8.32;;;3.53;;
25153;SDS011;47555;51.038;6.280;2024-03-23T05:30:21;7.18;;;3.17;;
25153;SDS011;47555;51.038;6.280;2024-03-23T05:32:47;12.73;;;3.72;;
25153;SDS011;47555;51.038;6.280;2024-03-23T05:35:13;10.80;;;3.55;;
25153;SDS011;47555;51.038;6.280;2024-03-23T05:37:39;11.07;;;4.00;;
25153;SDS011;47555;51.038;6.280;2024-03-23T05:40:05;8.35;;;3.20;;
25153;SDS011;47555;51.038;6.280;2024-03-23T05:42:33;14.05;;;4.20;;
25153;SDS011;47555;51.038;6.280;2024-03-23T05:44:59;8.98;;;3.58;;
25153;SDS011;47555;51.038;6.280;2024-03-23T05:47:25;13.05;;;3.60;;
25153;SDS011;47555;51.038;6.280;2024-03-23T05:49:51;7.82;;;3.28;;
25153;SDS011;47555;51.038;6.280;2024-03-23T05:52:17;9.13;;;3.78;;
25153;SDS011;47555;51.038;6.280;2024-03-23T05:54:43;7.10;;;4.03;;
25153;SDS011;47555;51.038;6.280;2024-03-23T05:57:09;9.55;;;4.10;;
25153;SDS011;47555;51.038;6.280;2024-03-23T05:59:37;10.15;;;3.72;;
25153;SDS011;47555;51.038;6.280;2024-03-23T06:02:03;10.23;;;3.22;;
25153;SDS011;47555;51.038;6.280;2024-03-23T06:04:29;10.65;;;3.22;;
25153;SDS011;47555;51.038;6.280;2024-03-23T06:06:55;10.45;;;3.88;;
25153;SDS011;47555;51.038;6.280;2024-03-23T06:09:22;7.50;;;3.25;;
25153;SDS011;47555;51.038;6.280;2024-03-23T06:11:49;9.48;;;3.63;;
25153;SDS011;47555;51.038;6.280;2024-03-23T06:14:14;12.68;;;3.50;;
25153;SDS011;47555;51.038;6.280;2024-03-23T06:16:40;11.73;;;3.33;;
25153;SDS011;47555;51.038;6.280;2024-03-23T06:19:06;6.45;;;3.55;;
25153;SDS011;47555;51.038;6.280;2024-03-23T06:21:32;9.10;;;4.47;;
25153;SDS011;47555;51.038;6.280;2024-03-23T06:23:58;11.95;;;3.58;;
25153;SDS011;47555;51.038;6.280;2024-03-23T06:26:24;13.55;;;4.80;;
25153;SDS011;47555;51.038;6.280;2024-03-23T06:28:51;11.38;;;4.25;;
25153;SDS011;47555;51.038;6.280;2024-03-23T06:31:17;13.40;;;4.55;;
25153;SDS011;47555;51.038;6.280;2024-03-23T06:33:43;13.80;;;4.72;;
25153;SDS011;47555;51.038;6.280;2024-03-23T06:36:09;11.27;;;3.88;;
25153;SDS011;47555;51.038;6.280;2024-03-23T06:38:36;17.70;;;4.30;;
25153;SDS011;47555;51.038;6.280;2024-03-23T06:41:03;14.45;;;5.00;;
25153;SDS011;47555;51.038;6.280;2024-03-23T06:43:29;14.13;;;4.80;;
25153;SDS011;47555;51.038;6.280;2024-03-23T06:45:55;14.48;;;4.57;;
25153;SDS011;47555;51.038;6.280;2024-03-23T06:48:21;13.60;;;5.28;;
25153;SDS011;47555;51.038;6.280;2024-03-23T06:50:47;19.83;;;5.90;;
25153;SDS011;47555;51.038;6.280;2024-03-23T06:53:13;12.85;;;5.72;;
25153;SDS011;47555;51.038;6.280;2024-03-23T06:55:39;15.60;;;5.57;;
25153;SDS011;47555;51.038;6.280;2024-03-23T06:58:06;18.85;;;6.20;;
25153;SDS011;47555;51.038;6.280;2024-03-23T07:00:32;13.82;;;5.70;;
25153;SDS011;47555;51.038;6.280;2024-03-23T07:02:59;15.65;;;7.03;;
25153;SDS011;47555;51.038;6.280;2024-03-23T07:05:25;17.75;;;6.43;;
25153;SDS011;47555;51.038;6.280;2024-03-23T07:07:51;15.23;;;6.47;;
25153;SDS011;47555;51.038;6.280;2024-03-23T07:10:17;12.00;;;5.35;;
25153;SDS011;47555;51.038;6.280;2024-03-23T07:12:43;12.02;;;4.75;;
25153;SDS011;47555;51.038;6.280;2024-03-23T07:15:09;10.90;;;5.03;;
25153;SDS011;47555;51.038;6.280;2024-03-23T07:17:35;8.40;;;3.53;;
25153;SDS011;47555;51.038;6.280;2024-03-23T07:20:02;8.85;;;3.60;;
25153;SDS011;47555;51.038;6.280;2024-03-23T07:22:29;4.60;;;3.00;;
25153;SDS011;47555;51.038;6.280;2024-03-23T07:24:56;6.47;;;3.08;;
25153;SDS011;47555;51.038;6.280;2024-03-23T07:27:22;6.50;;;2.70;;
25153;SDS011;47555;51.038;6.280;2024-03-23T07:29:48;5.78;;;2.30;;
25153;SDS011;47555;51.038;6.280;2024-03-23T07:32:14;7.38;;;2.55;;
25153;SDS011;47555;51.038;6.280;2024-03-23T07:34:41;3.80;;;2.00;;
25153;SDS011;47555;51.038;6.280;2024-03-23T07:37:09;4.72;;;2.55;;
25153;SDS011;47555;51.038;6.280;2024-03-23T07:39:35;4.60;;;2.15;;
25153;SDS011;47555;51.038;6.280;2024-03-23T07:42:01;5.80;;;1.90;;
25153;SDS011;47555;51.038;6.280;2024-03-23T07:44:27;5.53;;;2.38;;
25153;SDS011;47555;51.038;6.280;2024-03-23T07:46:53;5.35;;;2.20;;
25153;SDS011;47555;51.038;6.280;2024-03-23T07:49:19;3.55;;;1.67;;
25153;SDS011;47555;51.038;6.280;2024-03-23T07:51:45;4.43;;;2.40;;
25153;SDS011;47555;51.038;6.280;2024-03-23T07:54:11;7.03;;;2.70;;
25153;SDS011;47555;51.038;6.280;2024-03-23T07:56:37;4.93;;;2.42;;
25153;SDS011;47555;51.038;6.280;2024-03-23T07:59:03;11.18;;;2.85;;
25153;SDS011;47555;51.038;6.280;2024-03-23T08:01:29;5.20;;;3.22;;
25153;SDS011;47555;51.038;6.280;2024-03-23T08:03:55;9.07;;;3.83;;
25153;SDS011;47555;51.038;6.280;2024-03-23T08:06:21;13.13;;;5.00;;
25153;SDS011;47555;51.038;6.280;2024-03-23T08:08:52;9.35;;;4.65;;
25153;SDS011;47555;51.038;6.280;2024-03-23T08:11:30;9.65;;;5.03;;
25153;SDS011;47555;51.038;6.280;2024-03-23T08:13:57;12.60;;;4.95;;
25153;SDS011;47555;51.038;6.280;2024-03-23T08:16:23;9.05;;;4.93;;
25153;SDS011;47555;51.038;6.280;2024-03-23T08:18:52;12.57;;;4.57;;
25153;SDS011;47555;51.038;6.280;2024-03-23T08:21:18;11.45;;;5.45;;
25153;SDS011;47555;51.038;6.280;2024-03-23T08:23:45;10.18;;;4.85;;
25153;SDS011;47555;51.038;6.280;2024-03-23T08:26:11;15.68;;;4.57;;
25153;SDS011;47555;51.038;6.280;2024-03-23T08:28:38;11.60;;;4.32;;
25153;SDS011;47555;51.038;6.280;2024-03-23T08:31:05;10.82;;;5.15;;
25153;SDS011;47555;51.038;6.280;2024-03-23T08:33:31;11.48;;;4.47;;
25153;SDS011;47555;51.038;6.280;2024-03-23T08:35:58;11.02;;;5.10;;
25153;SDS011;47555;51.038;6.280;2024-03-23T08:38:25;11.55;;;4.68;;
25153;SDS011;47555;51.038;6.280;2024-03-23T08:45:49;7.55;;;3.30;;
25153;SDS011;47555;51.038;6.280;2024-03-23T08:48:15;10.98;;;5.15;;
25153;SDS011;47555;51.038;6.280;2024-03-23T08:50:41;12.27;;;3.58;;
25153;SDS011;47555;51.038;6.280;2024-03-23T08:53:08;7.05;;;3.38;;
25153;SDS011;47555;51.038;6.280;2024-03-23T08:55:33;9.45;;;3.15;;
25153;SDS011;47555;51.038;6.280;2024-03-23T08:58:01;7.10;;;3.00;;
25153;SDS011;47555;51.038;6.280;2024-03-23T09:00:27;9.77;;;3.10;;
25153;SDS011;47555;51.038;6.280;2024-03-23T09:02:53;7.68;;;2.80;;
25153;SDS011;47555;51.038;6.280;2024-03-23T09:05:20;11.75;;;3.38;;
25153;SDS011;47555;51.038;6.280;2024-03-23T09:07:46;10.48;;;3.70;;
25153;SDS011;47555;51.038;6.280;2024-03-23T09:10:13;8.02;;;2.90;;
25153;SDS011;47555;51.038;6.280;2024-03-23T09:12:39;9.90;;;3.03;;
25153;SDS011;47555;51.038;6.280;2024-03-23T09:15:05;10.50;;;2.95;;
25153;SDS011;47555;51.038;6.280;2024-03-23T09:17:31;7.65;;;2.50;;
25153;SDS011;47555;51.038;6.280;2024-03-23T09:19:57;8.23;;;2.50;;
25153;SDS011;47555;51.038;6.280;2024-03-23T09:22:23;8.50;;;2.80;;
25153;SDS011;47555;51.038;6.280;2024-03-23T09:24:49;5.78;;;2.65;;
25153;SDS011;47555;51.038;6.280;2024-03-23T09:27:15;9.65;;;1.95;;
25153;SDS011;47555;51.038;6.280;2024-03-23T09:29:41;6.88;;;2.05;;
25153;SDS011;47555;51.038;6.280;2024-03-23T09:32:07;5.72;;;2.00;;
25153;SDS011;47555;51.038;6.280;2024-03-23T09:34:34;5.38;;;2.22;;
25153;SDS011;47555;51.038;6.280;2024-03-23T09:37:00;8.10;;;2.15;;
25153;SDS011;47555;51.038;6.280;2024-03-23T09:39:26;6.55;;;2.20;;
25153;SDS011;47555;51.038;6.280;2024-03-23T09:41:56;4.75;;;1.85;;
25153;SDS011;47555;51.038;6.280;2024-03-23T09:44:22;8.43;;;2.92;;
25153;SDS011;47555;51.038;6.280;2024-03-23T09:46:48;9.52;;;2.60;;
25153;SDS011;47555;51.038;6.280;2024-03-23T09:49:14;5.82;;;1.92;;
25153;SDS011;47555;51.038;6.280;2024-03-23T09:51:40;3.47;;;1.80;;
25153;SDS011;47555;51.038;6.280;2024-03-23T09:54:06;6.97;;;1.75;;
25153;SDS011;47555;51.038;6.280;2024-03-23T09:56:32;5.43;;;1.90;;
25153;SDS011;47555;51.038;6.280;2024-03-23T09:59:01;5.53;;;1.73;;
25153;SDS011;47555;51.038;6.280;2024-03-23T10:01:29;4.40;;;1.45;;
25153;SDS011;47555;51.038;6.280;2024-03-23T10:03:55;3.35;;;1.40;;
25153;SDS011;47555;51.038;6.280;2024-03-23T10:06:21;6.20;;;2.05;;
25153;SDS011;47555;51.038;6.280;2024-03-23T10:08:49;2.30;;;1.77;;
25153;SDS011;47555;51.038;6.280;2024-03-23T10:11:16;4.28;;;2.15;;
25153;SDS011;47555;51.038;6.280;2024-03-23T10:13:43;6.97;;;1.80;;
25153;SDS011;47555;51.038;6.280;2024-03-23T10:16:09;4.57;;;2.08;;
25153;SDS011;47555;51.038;6.280;2024-03-23T10:18:39;5.05;;;2.03;;
25153;SDS011;47555;51.038;6.280;2024-03-23T10:23:34;6.20;;;2.00;;
25153;SDS011;47555;51.038;6.280;2024-03-23T10:26:43;8.63;;;2.42;;
25153;SDS011;47555;51.038;6.280;2024-03-23T10:28:57;6.07;;;2.10;;
25153;SDS011;47555;51.038;6.280;2024-03-23T10:33:51;4.88;;;1.80;;
25153;SDS011;47555;51.038;6.280;2024-03-23T10:36:19;4.85;;;2.38;;
25153;SDS011;47555;51.038;6.280;2024-03-23T10:38:45;3.50;;;1.55;;
25153;SDS011;47555;51.038;6.280;2024-03-23T10:41:12;3.03;;;1.30;;
25153;SDS011;47555;51.038;6.280;2024-03-23T10:43:38;3.70;;;1.10;;
25153;SDS011;47555;51.038;6.280;2024-03-23T10:46:05;2.80;;;0.95;;
25153;SDS011;47555;51.038;6.280;2024-03-23T10:48:31;3.15;;;1.13;;
25153;SDS011;47555;51.038;6.280;2024-03-23T10:50:57;2.40;;;0.93;;
25153;SDS011;47555;51.038;6.280;2024-03-23T10:53:27;2.40;;;0.95;;
25153;SDS011;47555;51.038;6.280;2024-03-23T10:55:54;2.70;;;1.33;;
25153;SDS011;47555;51.038;6.280;2024-03-23T10:58:24;1.85;;;1.23;;
25153;SDS011;47555;51.038;6.280;2024-03-23T11:00:50;3.00;;;1.70;;
25153;SDS011;47555;51.038;6.280;2024-03-23T11:06:01;2.90;;;1.20;;
25153;SDS011;47555;51.038;6.280;2024-03-23T11:13:42;2.38;;;1.30;;
25153;SDS011;47555;51.038;6.280;2024-03-23T11:16:14;4.45;;;1.52;;
25153;SDS011;47555;51.038;6.280;2024-03-23T11:18:40;3.63;;;1.33;;
25153;SDS011;47555;51.038;6.280;2024-03-23T11:21:07;4.68;;;1.73;;
25153;SDS011;47555;51.038;6.280;2024-03-23T11:23:33;5.20;;;2.03;;
25153;SDS011;47555;51.038;6.280;2024-03-23T11:25:59;3.55;;;1.80;;
25153;SDS011;47555;51.038;6.280;2024-03-23T11:28:25;4.13;;;1.98;;
25153;SDS011;47555;51.038;6.280;2024-03-23T11:30:52;1.85;;;1.00;;
25153;SDS011;47555;51.038;6.280;2024-03-23T11:33:17;3.60;;;1.10;;
25153;SDS011;47555;51.038;6.280;2024-03-23T11:35:44;3.38;;;0.90;;
25153;SDS011;47555;51.038;6.280;2024-03-23T11:40:37;2.55;;;1.20;;
25153;SDS011;47555;51.038;6.280;2024-03-23T11:43:10;4.18;;;1.60;;
25153;SDS011;47555;51.038;6.280;2024-03-23T11:50:29;2.17;;;1.20;;
25153;SDS011;47555;51.038;6.280;2024-03-23T11:58:06;5.05;;;1.65;;
25153;SDS011;47555;51.038;6.280;2024-03-23T12:00:33;3.05;;;0.82;;
25153;SDS011;47555;51.038;6.280;2024-03-23T12:03:02;1.10;;;0.60;;
25153;SDS011;47555;51.038;6.280;2024-03-23T12:05:28;1.23;;;1.00;;
25153;SDS011;47555;51.038;6.280;2024-03-23T12:07:54;0.60;;;0.60;;
25153;SDS011;47555;51.038;6.280;2024-03-23T12:10:20;1.42;;;0.77;;
25153;SDS011;47555;51.038;6.280;2024-03-23T12:12:58;1.02;;;0.90;;
25153;SDS011;47555;51.038;6.280;2024-03-23T12:15:24;2.65;;;2.35;;
25153;SDS011;47555;51.038;6.280;2024-03-23T12:17:50;2.25;;;1.20;;
25153;SDS011;47555;51.038;6.280;2024-03-23T12:20:16;5.75;;;1.52;;
25153;SDS011;47555;51.038;6.280;2024-03-23T12:22:42;2.00;;;1.33;;
25153;SDS011;47555;51.038;6.280;2024-03-23T12:25:10;5.10;;;1.60;;
25153;SDS011;47555;51.038;6.280;2024-03-23T12:27:36;7.70;;;2.03;;
25153;SDS011;47555;51.038;6.280;2024-03-23T12:30:02;2.83;;;1.30;;
25153;SDS011;47555;51.038;6.280;2024-03-23T12:32:29;2.13;;;1.38;;
25153;SDS011;47555;51.038;6.280;2024-03-23T12:34:56;4.68;;;1.48;;
25153;SDS011;47555;51.038;6.280;2024-03-23T12:37:22;2.55;;;1.45;;
25153;SDS011;47555;51.038;6.280;2024-03-23T12:39:47;2.33;;;1.42;;
25153;SDS011;47555;51.038;6.280;2024-03-23T12:42:13;2.25;;;1.75;;
25153;SDS011;47555;51.038;6.280;2024-03-23T12:44:40;3.03;;;1.90;;
25153;SDS011;47555;51.038;6.280;2024-03-23T12:47:09;2.80;;;1.90;;
25153;SDS011;47555;51.038;6.280;2024-03-23T12:49:36;4.15;;;2.08;;
25153;SDS011;47555;51.038;6.280;2024-03-23T12:52:02;4.47;;;2.20;;
25153;SDS011;47555;51.038;6.280;2024-03-23T12:54:29;5.30;;;2.35;;
25153;SDS011;47555;51.038;6.280;2024-03-23T12:56:56;3.50;;;2.10;;
25153;SDS011;47555;51.038;6.280;2024-03-23T12:59:22;4.57;;;2.78;;
25153;SDS011;47555;51.038;6.280;2024-03-23T13:01:48;5.00;;;2.70;;
25153;SDS011;47555;51.038;6.280;2024-03-23T13:04:14;4.60;;;2.20;;
25153;SDS011;47555;51.038;6.280;2024-03-23T13:06:41;4.00;;;1.90;;
25153;SDS011;47555;51.038;6.280;2024-03-23T13:09:07;5.70;;;2.17;;
25153;SDS011;47555;51.038;6.280;2024-03-23T13:11:33;3.80;;;2.70;;
25153;SDS011;47555;51.038;6.280;2024-03-23T13:13:59;3.85;;;2.00;;
25153;SDS011;47555;51.038;6.280;2024-03-23T13:16:25;4.05;;;1.90;;
25153;SDS011;47555;51.038;6.280;2024-03-23T13:18:51;2.92;;;1.80;;
25153;SDS011;47555;51.038;6.280;2024-03-23T13:21:17;2.88;;;1.77;;
25153;SDS011;47555;51.038;6.280;2024-03-23T13:23:46;4.55;;;1.52;;
25153;SDS011;47555;51.038;6.280;2024-03-23T13:26:13;3.28;;;1.20;;
25153;SDS011;47555;51.038;6.280;2024-03-23T13:28:39;3.30;;;1.33;;
25153;SDS011;47555;51.038;6.280;2024-03-23T13:31:04;3.95;;;1.20;;
25153;SDS011;47555;51.038;6.280;2024-03-23T13:33:30;3.80;;;1.30;;
25153;SDS011;47555;51.038;6.280;2024-03-23T13:35:59;1.38;;;1.27;;
25153;SDS011;47555;51.038;6.280;2024-03-23T13:38:25;2.45;;;1.10;;
25153;SDS011;47555;51.038;6.280;2024-03-23T13:40:58;3.28;;;1.52;;
25153;SDS011;47555;51.038;6.280;2024-03-23T13:43:25;4.05;;;0.98;;
25153;SDS011;47555;51.038;6.280;2024-03-23T13:45:54;1.38;;;1.00;;
25153;SDS011;47555;51.038;6.280;2024-03-23T13:48:21;3.15;;;1.30;;
25153;SDS011;47555;51.038;6.280;2024-03-23T13:50:47;5.10;;;1.27;;
25153;SDS011;47555;51.038;6.280;2024-03-23T13:53:14;1.73;;;1.23;;
25153;SDS011;47555;51.038;6.280;2024-03-23T13:55:46;1.98;;;1.40;;
25153;SDS011;47555;51.038;6.280;2024-03-23T13:58:15;2.40;;;2.08;;
25153;SDS011;47555;51.038;6.280;2024-03-23T14:00:42;2.13;;;1.33;;
25153;SDS011;47555;51.038;6.280;2024-03-23T14:03:11;2.45;;;1.50;;
25153;SDS011;47555;51.038;6.280;2024-03-23T14:05:38;3.15;;;1.50;;
25153;SDS011;47555;51.038;6.280;2024-03-23T14:08:07;3.38;;;1.67;;
25153;SDS011;47555;51.038;6.280;2024-03-23T14:10:33;1.75;;;1.52;;
25153;SDS011;47555;51.038;6.280;2024-03-23T14:13:01;1.67;;;1.50;;
25153;SDS011;47555;51.038;6.280;2024-03-23T14:15:27;2.65;;;1.67;;
25153;SDS011;47555;51.038;6.280;2024-03-23T14:17:53;5.70;;;2.00;;
25153;SDS011;47555;51.038;6.280;2024-03-23T14:20:22;3.75;;;1.85;;
25153;SDS011;47555;51.038;6.280;2024-03-23T14:22:48;4.25;;;2.40;;
25153;SDS011;47555;51.038;6.280;2024-03-23T14:25:14;3.28;;;1.90;;
25153;SDS011;47555;51.038;6.280;2024-03-23T14:27:40;3.58;;;2.42;;
25153;SDS011;47555;51.038;6.280;2024-03-23T14:30:06;5.82;;;2.38;;
25153;SDS011;47555;51.038;6.280;2024-03-23T14:32:33;5.63;;;2.65;;
25153;SDS011;47555;51.038;6.280;2024-03-23T14:35:01;2.92;;;1.92;;
25153;SDS011;47555;51.038;6.280;2024-03-23T14:37:27;1.77;;;1.60;;
25153;SDS011;47555;51.038;6.280;2024-03-23T14:39:55;1.60;;;1.50;;
25153;SDS011;47555;51.038;6.280;2024-03-23T14:42:21;2.75;;;1.77;;
25153;SDS011;47555;51.038;6.280;2024-03-23T14:44:48;4.18;;;1.95;;
25153;SDS011;47555;51.038;6.280;2024-03-23T14:47:14;2.38;;;1.50;;
25153;SDS011;47555;51.038;6.280;2024-03-23T14:49:42;2.88;;;1.48;;
25153;SDS011;47555;51.038;6.280;2024-03-23T14:52:12;3.13;;;1.33;;
25153;SDS011;47555;51.038;6.280;2024-03-23T14:54:38;2.97;;;1.27;;
25153;SDS011;47555;51.038;6.280;2024-03-23T14:57:04;2.60;;;1.38;;
25153;SDS011;47555;51.038;6.280;2024-03-23T14:59:29;4.40;;;2.13;;
25153;SDS011;47555;51.038;6.280;2024-03-23T15:01:56;3.80;;;1.40;;
25153;SDS011;47555;51.038;6.280;2024-03-23T15:04:21;1.92;;;1.30;;
25153;SDS011;47555;51.038;6.280;2024-03-23T15:06:48;3.80;;;1.42;;
25153;SDS011;47555;51.038;6.280;2024-03-23T15:09:15;2.28;;;1.10;;
25153;SDS011;47555;51.038;6.280;2024-03-23T15:11:41;2.53;;;1.40;;
25153;SDS011;47555;51.038;6.280;2024-03-23T15:14:07;3.67;;;1.20;;
25153;SDS011;47555;51.038;6.280;2024-03-23T15:16:33;4.68;;;1.30;;
25153;SDS011;47555;51.038;6.280;2024-03-23T15:18:59;1.85;;;1.30;;
25153;SDS011;47555;51.038;6.280;2024-03-23T15:21:25;3.63;;;1.45;;
25153;SDS011;47555;51.038;6.280;2024-03-23T15:23:51;3.35;;;1.40;;
25153;SDS011;47555;51.038;6.280;2024-03-23T15:26:17;4.82;;;1.38;;
25153;SDS011;47555;51.038;6.280;2024-03-23T15:28:47;4.22;;;2.30;;
25153;SDS011;47555;51.038;6.280;2024-03-23T15:31:22;5.60;;;2.50;;
25153;SDS011;47555;51.038;6.280;2024-03-23T15:33:48;3.28;;;1.60;;
25153;SDS011;47555;51.038;6.280;2024-03-23T15:36:14;3.97;;;1.60;;
25153;SDS011;47555;51.038;6.280;2024-03-23T15:38:40;3.03;;;1.90;;
25153;SDS011;47555;51.038;6.280;2024-03-23T15:41:07;2.95;;;1.67;;
25153;SDS011;47555;51.038;6.280;2024-03-23T15:43:33;3.20;;;2.00;;
25153;SDS011;47555;51.038;6.280;2024-03-23T15:46:00;6.63;;;2.17;;
25153;SDS011;47555;51.038;6.280;2024-03-23T15:48:27;4.35;;;1.90;;
25153;SDS011;47555;51.038;6.280;2024-03-23T15:50:53;5.78;;;2.25;;
25153;SDS011;47555;51.038;6.280;2024-03-23T15:53:19;2.78;;;1.70;;
25153;SDS011;47555;51.038;6.280;2024-03-23T15:55:52;3.13;;;1.70;;
25153;SDS011;47555;51.038;6.280;2024-03-23T15:58:19;5.47;;;2.00;;
25153;SDS011;47555;51.038;6.280;2024-03-23T16:00:46;3.63;;;1.95;;
25153;SDS011;47555;51.038;6.280;2024-03-23T16:03:11;3.42;;;1.85;;
25153;SDS011;47555;51.038;6.280;2024-03-23T16:05:38;5.75;;;1.90;;